createdAt,value
2018-04-15T00:01:35.811Z,101812.06
2018-04-15T00:04:04.956Z,101809.09
2018-04-15T00:06:33.303Z,101803.73
2018-04-15T00:09:02.429Z,101801.33
2018-04-15T00:11:30.772Z,101799.48
2018-04-15T00:13:59.911Z,101792.38
2018-04-15T00:16:28.231Z,101792.20
2018-04-15T00:18:56.575Z,101784.86
2018-04-15T00:21:24.917Z,101783.53
2018-04-15T00:23:54.021Z,101778.17
2018-04-15T00:26:23.136Z,101774.26
2018-04-15T00:28:51.507Z,101768.67
2018-04-15T00:31:19.920Z,101762.91
2018-04-15T00:33:48.307Z,101765.59
2018-04-15T00:36:18.085Z,101756.59
2018-04-15T00:38:47.158Z,101746.08
2018-04-15T00:41:15.737Z,101736.01
2018-04-15T00:43:44.066Z,101745.96
2018-04-15T00:46:12.465Z,101730.42
2018-04-15T00:48:40.829Z,101733.60
2018-04-15T00:51:09.155Z,101729.87
2018-04-15T00:53:59.319Z,101729.22
2018-04-15T00:56:27.659Z,101728.34
2018-04-15T00:58:56.775Z,101715.56
2018-04-15T01:01:25.402Z,101717.62
2018-04-15T01:03:54.146Z,101709.51
2018-04-15T01:06:22.524Z,101711.23
2018-04-15T01:08:51.613Z,101717.30
2018-04-15T01:11:20.703Z,101717.56
2018-04-15T01:13:49.033Z,101708.72
2018-04-15T01:16:17.350Z,101701.53
2018-04-15T01:18:45.720Z,101705.86
2018-04-15T01:21:14.072Z,101697.42
2018-04-15T01:23:42.412Z,101686.83
2018-04-15T01:26:10.829Z,101685.25
2018-04-15T01:28:39.154Z,101680.59
2018-04-15T01:31:07.503Z,101675.02
2018-04-15T01:33:35.841Z,101669.77
2018-04-15T01:36:04.973Z,101665.84
2018-04-15T01:38:33.300Z,101663.67
2018-04-15T01:41:01.648Z,101668.75
2018-04-15T01:43:29.967Z,101657.46
2018-04-15T01:45:58.298Z,101657.78
2018-04-15T01:48:26.609Z,101651.52
2018-04-15T01:50:54.984Z,101649.77
2018-04-15T01:53:23.301Z,101652.77
2018-04-15T01:55:51.970Z,101641.56
2018-04-15T01:58:20.308Z,101632.81
2018-04-15T02:00:48.657Z,101639.40
2018-04-15T02:03:16.969Z,101640.73
2018-04-15T02:05:45.303Z,101635.58
2018-04-15T02:08:13.635Z,101631.89
2018-04-15T02:10:41.967Z,101630.55
2018-04-15T02:13:10.320Z,101633.41
2018-04-15T02:15:38.680Z,101628.56
2018-04-15T02:18:07.002Z,101623.95
2018-04-15T02:20:35.333Z,101619.72
2018-04-15T02:23:03.685Z,101618.89
2018-04-15T02:25:32.025Z,101622.30
2018-04-15T02:28:00.375Z,101613.59
2018-04-15T02:30:28.709Z,101614.52
2018-04-15T02:32:58.614Z,101608.80
2018-04-15T02:35:26.939Z,101610.88
2018-04-15T02:37:56.045Z,101614.20
2018-04-15T02:40:25.167Z,101603.28
2018-04-15T02:42:53.495Z,101598.03
2018-04-15T02:45:21.824Z,101601.44
2018-04-15T02:47:50.191Z,101601.03
2018-04-15T02:50:18.989Z,101593.93
2018-04-15T02:52:48.089Z,101595.50
2018-04-15T02:55:16.480Z,101599.32
2018-04-15T02:57:44.823Z,101595.95
2018-04-15T03:00:13.173Z,101586.92
2018-04-15T03:02:41.504Z,101593.61
2018-04-15T03:05:10.608Z,101591.86
2018-04-15T03:07:40.078Z,101583.28
2018-04-15T03:10:08.415Z,101584.62
2018-04-15T03:12:36.747Z,101592.96
2018-04-15T03:15:05.057Z,101579.59
2018-04-15T03:17:34.159Z,101583.83
2018-04-15T03:20:03.287Z,101585.13
2018-04-15T03:22:31.603Z,101568.89
2018-04-15T03:24:59.907Z,101566.42
2018-04-15T03:27:28.248Z,101557.25
2018-04-15T03:29:56.602Z,101553.32
2018-04-15T03:32:24.950Z,101553.41
2018-04-15T03:34:54.028Z,101553.09
2018-04-15T03:37:22.490Z,101553.00
2018-04-15T03:39:50.822Z,101549.59
2018-04-15T03:42:19.903Z,101541.06
2018-04-15T03:44:48.306Z,101541.89
2018-04-15T03:47:17.394Z,101543.68
2018-04-15T03:49:46.950Z,101540.28
2018-04-15T03:52:15.320Z,101543.59
2018-04-15T03:54:43.695Z,101542.17
2018-04-15T03:57:12.175Z,101535.99
2018-04-15T03:59:40.526Z,101531.38
2018-04-15T04:02:08.851Z,101531.98
2018-04-15T04:04:37.166Z,101529.49
2018-04-15T04:07:05.493Z,101524.15
2018-04-15T04:09:33.837Z,101528.98
2018-04-15T04:12:02.169Z,101526.95
2018-04-15T04:14:30.520Z,101529.44
2018-04-15T04:16:59.606Z,101531.19
2018-04-15T04:19:46.600Z,101532.34
2018-04-15T04:22:32.777Z,101526.71
2018-04-15T04:38:30.889Z,101520.34
2018-04-15T04:40:59.988Z,101514.72
2018-04-15T04:43:28.318Z,101519.53
2018-04-15T04:45:56.648Z,101516.34
2018-04-15T04:48:25.006Z,101514.91
2018-04-15T04:50:54.104Z,101520.30
2018-04-15T04:53:22.488Z,101512.09
2018-04-15T04:55:51.610Z,101511.08
2018-04-15T04:58:19.947Z,101508.81
2018-04-15T05:00:48.921Z,101502.22
2018-04-15T05:03:17.229Z,101501.30
2018-04-15T05:05:45.588Z,101504.61
2018-04-15T05:08:13.960Z,101503.41
2018-04-15T05:10:42.639Z,101503.50
2018-04-15T05:13:10.976Z,101495.61
2018-04-15T05:15:40.115Z,101504.37
2018-04-15T05:18:08.463Z,101505.61
2018-04-15T05:20:37.605Z,101501.83
2018-04-15T05:23:05.929Z,101507.49
2018-04-15T05:25:34.650Z,101500.20
2018-04-15T05:28:02.988Z,101497.34
2018-04-15T05:30:31.332Z,101496.41
2018-04-15T05:32:59.635Z,101492.85
2018-04-15T05:35:28.732Z,101500.21
2018-04-15T05:37:57.084Z,101505.15
2018-04-15T05:40:25.662Z,101507.38
2018-04-15T05:42:54.004Z,101507.50
2018-04-15T05:45:23.104Z,101505.50
2018-04-15T05:47:51.438Z,101495.84
2018-04-15T05:50:19.764Z,101493.19
2018-04-15T05:52:48.861Z,101496.41
2018-04-15T05:55:17.984Z,101490.09
2018-04-15T05:57:47.182Z,101492.08
2018-04-15T06:00:16.425Z,101483.23
2018-04-15T06:02:44.737Z,101482.39
2018-04-15T06:05:13.120Z,101486.77
2018-04-15T06:07:42.220Z,101491.12
2018-04-15T06:10:11.314Z,101477.22
2018-04-15T06:12:39.642Z,101478.08
2018-04-15T06:15:08.252Z,101464.63
2018-04-15T06:17:36.580Z,101466.09
2018-04-15T06:20:04.925Z,101463.62
2018-04-15T06:22:33.245Z,101468.30
2018-04-15T06:25:01.714Z,101474.66
2018-04-15T06:27:30.046Z,101472.20
2018-04-15T06:29:58.401Z,101476.73
2018-04-15T06:32:26.715Z,101465.41
2018-04-15T06:34:55.050Z,101460.34
2018-04-15T06:37:24.238Z,101449.42
2018-04-15T06:39:52.577Z,101449.73
2018-04-15T06:42:20.899Z,101448.91
2018-04-15T06:44:49.231Z,101448.52
2018-04-15T06:47:17.557Z,101444.75
2018-04-15T06:49:45.879Z,101439.55
2018-04-15T06:52:14.979Z,101440.13
2018-04-15T06:54:44.063Z,101438.48
2018-04-15T06:57:12.395Z,101432.44
2018-04-15T06:59:40.715Z,101431.25
2018-04-15T07:02:09.023Z,101435.02
2018-04-15T07:04:38.627Z,101436.50
2018-04-15T07:07:07.108Z,101437.64
2018-04-15T07:09:35.437Z,101437.17
2018-04-15T07:12:03.759Z,101431.83
2018-04-15T07:14:32.218Z,101426.44
2018-04-15T07:17:00.539Z,101427.55
2018-04-15T07:19:29.609Z,101425.23
2018-04-15T07:21:57.917Z,101419.72
2018-04-15T07:24:26.216Z,101422.98
2018-04-15T07:26:55.313Z,101412.05
2018-04-15T07:29:24.397Z,101416.29
2018-04-15T07:31:53.483Z,101413.45
2018-04-15T07:34:21.797Z,101412.59
2018-04-15T07:36:50.131Z,101412.91
2018-04-15T07:39:18.446Z,101421.79
2018-04-15T07:41:47.525Z,101414.20
2018-04-15T07:44:15.835Z,101416.72
2018-04-15T07:46:44.925Z,101414.44
2018-04-15T07:49:18.541Z,101412.17
2018-04-15T07:51:47.125Z,101413.37
2018-04-15T07:54:16.215Z,101407.78
2018-04-15T07:56:45.311Z,101412.48
2018-04-15T07:59:14.405Z,101411.98
2018-04-15T08:01:43.482Z,101413.91
2018-04-15T08:04:11.801Z,101414.53
2018-04-15T08:06:40.117Z,101415.55
2018-04-15T08:09:08.431Z,101415.05
2018-04-15T08:11:36.770Z,101417.10
2018-04-15T08:14:05.081Z,101404.51
2018-04-15T08:16:34.327Z,101399.67
2018-04-15T08:19:03.403Z,101404.19
2018-04-15T08:21:31.711Z,101402.48
2018-04-15T08:24:00.015Z,101396.97
2018-04-15T08:26:28.578Z,101397.16
2018-04-15T08:28:57.651Z,101397.11
2018-04-15T08:31:25.955Z,101393.20
2018-04-15T08:33:55.098Z,101394.41
2018-04-15T08:36:23.412Z,101387.67
2018-04-15T08:38:51.734Z,101381.02
2018-04-15T08:41:20.055Z,101383.86
2018-04-15T08:43:48.370Z,101375.38
2018-04-15T08:46:17.455Z,101380.84
2018-04-15T08:48:46.546Z,101373.23
2018-04-15T08:51:14.864Z,101378.19
2018-04-15T08:53:43.167Z,101379.42
2018-04-15T08:56:11.493Z,101375.08
2018-04-15T08:58:39.837Z,101369.41
2018-04-15T09:01:08.129Z,101372.30
2018-04-15T09:03:37.259Z,101370.30
2018-04-15T09:06:05.605Z,101366.30
2018-04-15T09:08:33.898Z,101362.61
2018-04-15T09:11:02.220Z,101364.94
2018-04-15T09:13:31.755Z,101361.55
2018-04-15T09:16:00.064Z,101349.53
2018-04-15T09:18:28.416Z,101349.66
2018-04-15T09:20:58.502Z,101353.84
2018-04-15T09:23:26.835Z,101348.97
2018-04-15T09:25:55.142Z,101339.78
2018-04-15T09:28:23.459Z,101334.44
2018-04-15T09:30:58.142Z,101341.30
2018-04-15T09:33:26.467Z,101335.16
2018-04-15T09:35:55.554Z,101330.97
2018-04-15T09:38:23.858Z,101323.42
2018-04-15T09:40:52.261Z,101324.89
2018-04-15T09:43:20.572Z,101319.91
2018-04-15T09:45:48.891Z,101325.07
2018-04-15T09:48:17.969Z,101318.19
2018-04-15T09:50:46.307Z,101316.28
2018-04-15T09:53:14.609Z,101317.85
2018-04-15T09:55:42.937Z,101315.73
2018-04-15T09:58:12.093Z,101309.61
2018-04-15T10:00:40.447Z,101312.14
2018-04-15T10:03:08.760Z,101305.89
2018-04-15T10:05:37.069Z,101307.11
2018-04-15T10:08:06.186Z,101310.34
2018-04-15T10:10:35.258Z,101312.14
2018-04-15T10:13:03.592Z,101311.48
2018-04-15T10:15:31.892Z,101313.22
2018-04-15T10:18:00.215Z,101314.42
2018-04-15T10:20:29.294Z,101316.82
2018-04-15T10:22:57.595Z,101312.59
2018-04-15T10:25:27.207Z,101306.16
2018-04-15T10:27:56.285Z,101303.92
2018-04-15T10:30:24.605Z,101310.48
2018-04-15T10:32:52.925Z,101307.78
2018-04-15T10:35:22.017Z,101302.36
2018-04-15T10:37:50.342Z,101304.30
2018-04-15T10:40:18.684Z,101305.41
2018-04-15T10:42:46.992Z,101296.81
2018-04-15T10:45:15.314Z,101302.27
2018-04-15T10:47:43.650Z,101297.66
2018-04-15T10:50:12.190Z,101289.73
2018-04-15T10:52:40.499Z,101295.06
2018-04-15T10:55:17.591Z,101287.84
2018-04-15T10:57:48.815Z,101284.59
2018-04-15T11:00:20.865Z,101278.52
2018-04-15T11:02:51.797Z,101278.34
2018-04-15T11:05:20.302Z,101283.75
2018-04-15T11:07:48.605Z,101275.08
2018-04-15T11:10:16.963Z,101275.75
2018-04-15T11:12:45.302Z,101277.52
2018-04-15T11:15:13.629Z,101268.16
2018-04-15T11:17:41.979Z,101277.52
2018-04-15T11:20:11.046Z,101266.58
2018-04-15T11:22:39.366Z,101271.63
2018-04-15T11:25:08.505Z,101262.27
2018-04-15T11:27:36.843Z,101262.22
2018-04-15T11:30:05.940Z,101250.91
2018-04-15T11:32:35.660Z,101252.64
2018-04-15T11:35:04.742Z,101253.47
2018-04-15T11:37:33.120Z,101248.52
2018-04-15T11:40:01.441Z,101245.83
2018-04-15T11:42:29.848Z,101241.91
2018-04-15T11:44:58.376Z,101247.26
2018-04-15T11:47:26.741Z,101234.33
2018-04-15T11:49:55.112Z,101232.34
2018-04-15T11:52:23.461Z,101229.80
2018-04-15T11:54:51.808Z,101233.72
2018-04-15T11:57:20.946Z,101227.30
2018-04-15T11:59:49.270Z,101223.52
2018-04-15T12:02:18.358Z,101225.55
2018-04-15T12:04:46.704Z,101217.34
2018-04-15T12:07:15.034Z,101215.72
2018-04-15T12:09:43.380Z,101213.69
2018-04-15T12:12:11.721Z,101213.67
2018-04-15T12:14:40.812Z,101213.83
2018-04-15T12:17:09.933Z,101212.39
2018-04-15T12:19:38.240Z,101210.23
2018-04-15T12:22:06.662Z,101211.44
2018-04-15T12:24:35.004Z,101211.41
2018-04-15T12:27:03.493Z,101208.79
2018-04-15T12:29:32.165Z,101207.22
2018-04-15T12:32:00.485Z,101202.05
2018-04-15T12:34:28.805Z,101202.55
2018-04-15T12:36:57.889Z,101196.59
2018-04-15T12:39:26.219Z,101199.47
2018-04-15T12:41:54.536Z,101191.42
2018-04-15T12:44:22.857Z,101188.89
2018-04-15T12:46:51.182Z,101188.29
2018-04-15T12:49:19.527Z,101187.47
2018-04-15T12:51:48.590Z,101193.53
2018-04-15T12:54:17.035Z,101182.63
2018-04-15T12:56:45.359Z,101181.73
2018-04-15T12:59:13.693Z,101176.16
2018-04-15T13:01:42.003Z,101181.50
2018-04-15T13:04:10.450Z,101187.85
2018-04-15T13:06:38.769Z,101182.90
2018-04-15T13:09:07.085Z,101184.88
2018-04-15T13:11:36.167Z,101185.72
2018-04-15T13:14:04.473Z,101178.06
2018-04-15T13:16:33.574Z,101182.08
2018-04-15T13:19:02.663Z,101176.71
2018-04-15T13:21:31.058Z,101166.42
2018-04-15T13:24:00.117Z,101176.59
2018-04-15T13:26:28.423Z,101169.34
2018-04-15T13:28:56.801Z,101165.37
2018-04-15T13:31:25.171Z,101163.55
2018-04-15T13:33:53.505Z,101160.23
2018-04-15T13:36:21.795Z,101158.19
2018-04-15T13:38:50.105Z,101157.00
2018-04-15T13:41:18.424Z,101159.94
2018-04-15T13:43:47.513Z,101155.70
2018-04-15T13:46:15.822Z,101151.92
2018-04-15T13:48:44.157Z,101162.64
2018-04-15T13:51:12.493Z,101155.42
2018-04-15T13:53:40.814Z,101161.74
2018-04-15T13:56:09.131Z,101161.88
2018-04-15T13:58:38.220Z,101156.37
2018-04-15T14:01:07.332Z,101154.77
2018-04-15T14:03:36.416Z,101151.14
2018-04-15T14:06:04.728Z,101147.29
2018-04-15T14:08:33.061Z,101150.38
2018-04-15T14:11:01.363Z,101143.28
2018-04-15T14:13:29.673Z,101148.77
2018-04-15T14:15:57.983Z,101144.00
2018-04-15T14:18:26.313Z,101143.85
2018-04-15T14:20:55.443Z,101135.22
2018-04-15T14:23:23.771Z,101144.59
2018-04-15T14:25:52.069Z,101141.09
2018-04-15T14:28:21.137Z,101139.27
2018-04-15T14:30:49.453Z,101142.89
2018-04-15T14:33:19.179Z,101144.23
2018-04-15T14:35:48.257Z,101142.57
2018-04-15T14:38:16.578Z,101145.01
2018-04-15T14:40:44.886Z,101146.70
2018-04-15T14:43:13.202Z,101137.78
2018-04-15T14:45:41.522Z,101148.42
2018-04-15T14:48:09.842Z,101151.27
2018-04-15T14:50:38.152Z,101155.36
2018-04-15T14:53:07.958Z,101155.87
2018-04-15T14:55:36.259Z,101155.73
2018-04-15T14:58:05.350Z,101154.42
2018-04-15T15:00:34.435Z,101155.95
2018-04-15T15:03:02.869Z,101145.28
2018-04-15T15:05:31.175Z,101149.61
2018-04-15T15:07:59.493Z,101151.06
2018-04-15T15:10:28.555Z,101146.91
2018-04-15T15:12:56.861Z,101145.41
2018-04-15T15:15:25.170Z,101139.35
2018-04-15T15:17:53.475Z,101134.57
2018-04-15T15:20:21.826Z,101134.96
2018-04-15T15:22:50.901Z,101132.37
2018-04-15T15:25:19.211Z,101130.45
2018-04-15T15:27:48.363Z,101132.06
2018-04-15T15:30:16.683Z,101127.34
2018-04-15T15:32:45.735Z,101121.08
2018-04-15T15:35:14.061Z,101121.32
2018-04-15T15:37:43.178Z,101126.61
2018-04-15T15:40:11.496Z,101119.48
2018-04-15T15:42:39.827Z,101116.45
2018-04-15T15:45:08.949Z,101119.95
2018-04-15T15:47:37.246Z,101116.15
2018-04-15T15:50:05.572Z,101124.61
2018-04-15T15:52:33.888Z,101118.36
2018-04-15T15:55:03.220Z,101117.41
2018-04-15T15:57:31.528Z,101117.35
2018-04-15T15:59:59.837Z,101110.94
2018-04-15T16:02:28.934Z,101109.49
2018-04-15T16:04:58.110Z,101116.77
2018-04-15T16:07:27.031Z,101114.59
2018-04-15T16:09:56.440Z,101111.47
2018-04-15T16:12:25.570Z,101108.17
2018-04-15T16:14:53.877Z,101101.85
2018-04-15T16:17:22.286Z,101103.10
2018-04-15T16:19:51.358Z,101097.95
2018-04-15T16:22:19.690Z,101103.03
2018-04-15T16:24:48.038Z,101101.24
2018-04-15T16:27:16.344Z,101099.52
2018-04-15T16:29:45.431Z,101099.81
2018-04-15T16:32:13.758Z,101107.25
2018-04-15T16:34:42.060Z,101108.30
2018-04-15T16:37:11.005Z,101114.89
2018-04-15T16:39:39.328Z,101111.59
2018-04-15T16:42:07.622Z,101113.39
2018-04-15T16:44:35.947Z,101112.20
2018-04-15T16:47:05.030Z,101110.19
2018-04-15T16:49:33.356Z,101118.09
2018-04-15T16:52:01.678Z,101116.34
2018-04-15T16:54:30.014Z,101107.22
2018-04-15T16:56:58.328Z,101112.48
2018-04-15T16:59:27.191Z,101113.39
2018-04-15T17:01:55.495Z,101107.37
2018-04-15T17:04:23.858Z,101109.05
2018-04-15T17:06:52.177Z,101111.37
2018-04-15T17:09:20.486Z,101118.64
2018-04-15T17:11:49.572Z,101124.15
2018-04-15T17:14:19.709Z,101117.34
2018-04-15T17:16:48.041Z,101113.80
2018-04-15T17:19:16.430Z,101122.58
2018-04-15T17:21:44.750Z,101112.03
2018-04-15T17:24:13.841Z,101119.33
2018-04-15T17:26:42.163Z,101125.16
2018-04-15T17:29:10.498Z,101124.73
2018-04-15T17:31:38.817Z,101121.48
2018-04-15T17:34:07.127Z,101122.77
2018-04-15T17:36:35.442Z,101123.22
2018-04-15T17:39:03.829Z,101121.66
2018-04-15T17:41:32.157Z,101126.13
2018-04-15T17:44:00.469Z,101129.16
2018-04-15T17:46:29.059Z,101123.84
2018-04-15T17:48:58.529Z,101129.30
2018-04-15T17:51:26.941Z,101124.58
2018-04-15T17:53:55.324Z,101134.25
2018-04-15T17:56:23.646Z,101138.05
2018-04-15T17:58:52.827Z,101140.83
2018-04-15T18:01:21.200Z,101144.39
2018-04-15T18:03:49.518Z,101143.62
2018-04-15T18:06:18.829Z,101138.05
2018-04-15T18:08:47.922Z,101134.23
2018-04-15T18:11:17.017Z,101135.36
2018-04-15T18:13:46.125Z,101137.16
2018-04-15T18:16:14.455Z,101134.60
2018-04-15T18:18:42.781Z,101143.08
2018-04-15T18:21:11.852Z,101145.08
2018-04-15T18:23:40.181Z,101145.02
2018-04-15T18:26:08.488Z,101146.81
2018-04-15T18:28:36.790Z,101147.98
2018-04-15T18:31:05.123Z,101149.95
2018-04-15T18:33:33.430Z,101148.14
2018-04-15T18:36:01.743Z,101149.37
2018-04-15T18:38:30.043Z,101156.08
2018-04-15T18:40:59.141Z,101148.80
2018-04-15T18:43:28.281Z,101154.25
2018-04-15T18:45:56.616Z,101149.68
2018-04-15T18:48:24.961Z,101153.03
2018-04-15T18:50:53.949Z,101150.00
2018-04-15T18:53:23.756Z,101149.72
2018-04-15T18:55:52.066Z,101150.36
2018-04-15T18:58:20.556Z,101159.61
2018-04-15T19:00:48.831Z,101158.28
2018-04-15T19:03:17.319Z,101157.98
2018-04-15T19:05:45.636Z,101160.61
2018-04-15T19:08:14.727Z,101160.02
2018-04-15T19:10:43.047Z,101168.29
2018-04-15T19:13:11.355Z,101169.16
2018-04-15T19:15:39.653Z,101171.85
2018-04-15T19:18:07.955Z,101168.55
2018-04-15T19:20:37.030Z,101165.46
2018-04-15T19:23:05.364Z,101170.52
2018-04-15T19:25:33.690Z,101170.21
2018-04-15T19:28:02.006Z,101167.54
2018-04-15T19:30:31.098Z,101172.73
2018-04-15T19:33:00.172Z,101171.27
2018-04-15T19:35:28.492Z,101174.06
2018-04-15T19:37:57.628Z,101175.40
2018-04-15T19:40:26.081Z,101161.78
2018-04-15T19:42:54.397Z,101161.47
2018-04-15T19:45:22.696Z,101163.85
2018-04-15T19:47:51.048Z,101166.13
2018-04-15T19:50:19.418Z,101167.47
2018-04-15T19:52:47.768Z,101168.09
2018-04-15T19:55:16.086Z,101163.65
2018-04-15T19:57:44.408Z,101169.32
2018-04-15T20:00:12.947Z,101172.94
2018-04-15T20:02:41.262Z,101171.48
2018-04-15T20:05:09.644Z,101165.71
2018-04-15T20:07:38.009Z,101164.78
2018-04-15T20:10:06.310Z,101164.47
2018-04-15T20:12:34.643Z,101159.21
2018-04-15T20:15:03.815Z,101163.75
2018-04-15T20:17:32.134Z,101163.02
2018-04-15T20:20:00.443Z,101154.98
2018-04-15T20:22:28.775Z,101163.44
2018-04-15T20:24:57.883Z,101158.59
2018-04-15T20:27:26.965Z,101153.54
2018-04-15T20:29:55.650Z,101161.38
2018-04-15T20:32:24.054Z,101155.49
2018-04-15T20:34:53.167Z,101155.39
2018-04-15T20:37:21.501Z,101156.41
2018-04-15T20:39:49.839Z,101157.75
2018-04-15T20:42:18.157Z,101158.56
2018-04-15T20:44:46.480Z,101157.20
2018-04-15T20:47:15.572Z,101158.02
2018-04-15T20:49:44.639Z,101162.16
2018-04-15T20:52:13.717Z,101167.83
2018-04-15T20:54:42.014Z,101164.62
2018-04-15T20:57:10.327Z,101160.91
2018-04-15T20:59:39.426Z,101166.89
2018-04-15T21:02:07.743Z,101157.30
2018-04-15T21:04:36.076Z,101165.14
2018-04-15T21:07:04.392Z,101161.84
2018-04-15T21:09:32.700Z,101159.97
2018-04-15T21:12:01.011Z,101157.19
2018-04-15T21:14:29.396Z,101161.21
2018-04-15T21:16:57.659Z,101159.45
2018-04-15T21:19:26.037Z,101159.63
2018-04-15T21:21:54.369Z,101159.11
2018-04-15T21:24:23.437Z,101156.73
2018-04-15T21:26:51.775Z,101154.87
2018-04-15T21:29:20.071Z,101153.53
2018-04-15T21:31:48.380Z,101152.08
2018-04-15T21:34:16.705Z,101157.75
2018-04-15T21:36:45.067Z,101156.11
2018-04-15T21:39:14.136Z,101151.77
2018-04-15T21:41:42.448Z,101154.34
2018-04-15T21:44:10.909Z,101157.55
2018-04-15T21:46:39.225Z,101152.70
2018-04-15T21:49:08.310Z,101148.98
2018-04-15T21:51:36.610Z,101148.46
2018-04-15T21:54:05.695Z,101147.84
2018-04-15T21:56:34.760Z,101153.01
2018-04-15T21:59:03.080Z,101151.87
2018-04-15T22:01:32.141Z,101155.91
2018-04-15T22:04:00.465Z,101158.01
2018-04-15T22:06:29.597Z,101159.21
2018-04-15T22:08:57.909Z,101156.25
2018-04-15T22:25:03.832Z,101141.12
2018-04-15T22:27:32.146Z,101141.12
2018-04-15T22:30:01.235Z,101141.02
2018-04-15T22:32:31.018Z,101135.54
2018-04-15T22:34:59.338Z,101129.34
2018-04-15T22:37:28.419Z,101134.72
2018-04-15T22:39:57.189Z,101126.25
2018-04-15T22:42:25.505Z,101132.85
2018-04-15T22:44:55.150Z,101135.11
2018-04-15T22:47:23.467Z,101142.23
2018-04-15T22:49:57.355Z,101139.66
2018-04-15T22:52:25.707Z,101139.25
2018-04-15T22:54:54.023Z,101134.81
2018-04-15T22:57:22.325Z,101142.03
2018-04-15T22:59:50.629Z,101139.05
2018-04-15T23:02:19.707Z,101134.09
2018-04-15T23:04:48.049Z,101135.44
2018-04-15T23:07:16.370Z,101135.80
2018-04-15T23:09:44.763Z,101136.59
2018-04-15T23:12:13.067Z,101142.91
2018-04-15T23:14:42.137Z,101142.14
2018-04-15T23:17:10.460Z,101144.42
2018-04-15T23:19:38.771Z,101145.70
2018-04-15T23:22:07.076Z,101148.70
2018-04-15T23:24:35.380Z,101151.33
2018-04-15T23:27:04.437Z,101159.79
2018-04-15T23:29:32.797Z,101160.31
2018-04-15T23:32:01.104Z,101155.16
2018-04-15T23:34:29.409Z,101159.31
2018-04-15T23:36:57.727Z,101158.29
2018-04-15T23:39:26.092Z,101152.34
2018-04-15T23:41:54.371Z,101154.82
2018-04-15T23:44:23.445Z,101145.95
2018-04-15T23:46:51.783Z,101149.35
2018-04-15T23:49:20.103Z,101152.66
2018-04-15T23:51:48.505Z,101149.77
2018-04-15T23:54:16.823Z,101152.97
2018-04-15T23:56:50.565Z,101161.11
2018-04-15T23:59:18.878Z,101161.73
